Bluemont, VA (20135)

9:18 AM EDT on April 26, 2015 (GMT -0400)
RAVEN ROCKS ROAD BLUEMONT VA | | Change Station
CLOSE
Current Station
Personal Weather Station
Location: Bluemont, VA
Elevation: 1325 ft
Nearby Weather Stations

Elev 1325 ft 39.13 °N, 77.83 °W | Updated 53 seconds ago

Mostly Cloudy
Mostly Cloudy
45.7 °F
Feels Like 43 °F
N
4.7
Wind Variable Wind from WNW

Today
High -- | Low -- °F
--% Chance of Precip.
Yesterday
High -- | Low -- °F
Precip. -- in
6:19 AM 7:59 PM
First Quarter, 55% visible
Pressure 29.73 in
Visibility 10.0 miles
Clouds Scattered Clouds 12000 ft
Windchill 43 °F
Dew Point 40 °F
Humidity 79%
Rainfall 0.00 in
Snow Depth Not available.
UV 2 out of 12
Pollen 5.60 out of 12
Air Quality Not available.
Flu Activity Sporadic
METAR KJYO 261255Z AUTO 01008G14KT 10SM SCT120 09/03 A2973 RMK AO2

More Conditions Fewer Conditions

Pressure 29.73 in
Visibility 10.0 miles
Clouds Scattered Clouds 12000 ft
Windchill 43 °F
Dew Point 40 °F
Humidity 79%
Rainfall 0.00 in
Snow Depth Not available.
UV 2 out of 12
Pollen 5.60 out of 12
Air Quality Not available.
Flu Activity Sporadic
METAR KJYO 261255Z AUTO 01008G14KT 10SM SCT120 09/03 A2973 RMK AO2

More Conditions Fewer Conditions

The full scope of the disaster following a powerful 7.8-magnitude earthquake in Nepal may not come into view for days, but global charities are already sending emergency aid. Click to see how you can help.

10-Day Weather Forecast

Almanac

Astronomy

Apr. 26, 2015 Rise Set
Actual Time
Civil Twilight
Nautical Twilight
Astronomical Twilight
Moon
Length of Visible Light
Length of Day
Tomorrow will be .
, % of the Moon is Illuminated

Today's Extremes

State Highs State Lows

Community

WunderPhotos

Upload Photos

1,816,985 photos uploaded!

WunderBlogs® & News

Nearby

Air Quality

  Air Quality AQ Index Pollutant
Not available.

Snow Depth

Station Depth Elevation

Earthquake Activity

City Distance Mag. Time & Date
Minimum magnitude displayed is 2.5.

Coastal Water Temperatures

Place Temperature

Stations

Nearby Weather Stations

Station Location Temp. Windchill Dew Point Humidity Wind Precip. Elev Updated Type